Pendleton, SC (29670)

7:26 AM EST on January 26, 2015 (GMT -0500)
Clemson University Extension Bull Test | Change Station
CLOSE
Current Station
Personal Weather Station
Location: Pendleton, SC
Elevation: 794 ft
Nearby Weather Stations

Elev 794 ft 34.67 °N, 82.73 °W | Updated 3 seconds ago

Partly Cloudy
Partly Cloudy
39.9 °F
Feels Like 40 °F
N
0.0
Wind Variable Wind from North
Gusts 0.0 mph

Today
High -- | Low -- °F
--% Chance of Precip.
Yesterday
High -- | Low -- °F
Precip. -- in
7:33 AM 5:54 PM
Waxing Crescent, 42% visible
Pressure 29.67 in
Visibility 10.0 miles
Clouds Scattered Clouds 9000 ft
Mostly Cloudy 12000 ft
Windchill 40 °F
Dew Point 38 °F
Humidity 91%
Rainfall 0.00 in
Snow Depth Not available.
UV 0 out of 12
Pollen .60 out of 12
Air Quality Not available.
Flu Activity Not available.
METAR KCEU 261154Z AUTO 25007KT 10SM SCT090 BKN120 06/03 A2967 RMK AO2 SLP046 60000 T00610033 10089 20061 53005

More Conditions Fewer Conditions

Pressure 29.67 in
Visibility 10.0 miles
Clouds Scattered Clouds 9000 ft
Mostly Cloudy 12000 ft
Windchill 40 °F
Dew Point 38 °F
Humidity 91%
Rainfall 0.00 in
Snow Depth Not available.
UV 0 out of 12
Pollen .60 out of 12
Air Quality Not available.
Flu Activity Not available.
METAR KCEU 261154Z AUTO 25007KT 10SM SCT090 BKN120 06/03 A2967 RMK AO2 SLP046 60000 T00610033 10089 20061 53005

More Conditions Fewer Conditions

10-Day Weather Forecast

Almanac

Astronomy

Jan. 26, 2015 Rise Set
Actual Time
Civil Twilight
Nautical Twilight
Astronomical Twilight
Moon
Length of Visible Light
Length of Day
Tomorrow will be .
, % of the Moon is Illuminated

Today's Extremes

State Highs State Lows

Community

WunderPhotos

Upload Photos

1,790,175 photos uploaded!

WunderBlogs® & News

Nearby

Air Quality

  Air Quality AQ Index Pollutant
Not available.

Snow Depth

Station Depth Elevation

Earthquake Activity

City Distance Mag. Time & Date
Minimum magnitude displayed is 2.5.

Coastal Water Temperatures

Place Temperature

Nearby Weather Stations